sensor_id;sensor_type;location;lat;lon;timestamp;temperature;humidity
67870;DHT22;54673;52.262;6.830;2023-02-28T00:02:18;14.70;50.40
67870;DHT22;54673;52.262;6.830;2023-02-28T00:04:43;14.70;50.40
67870;DHT22;54673;52.262;6.830;2023-02-28T00:07:09;14.70;50.40
67870;DHT22;54673;52.262;6.830;2023-02-28T00:09:35;14.70;50.40
67870;DHT22;54673;52.262;6.830;2023-02-28T00:12:00;14.60;50.40
67870;DHT22;54673;52.262;6.830;2023-02-28T00:14:36;14.70;50.40
67870;DHT22;54673;52.262;6.830;2023-02-28T00:17:01;14.70;50.50
67870;DHT22;54673;52.262;6.830;2023-02-28T00:19:27;14.60;50.40
67870;DHT22;54673;52.262;6.830;2023-02-28T00:21:53;14.60;50.40
67870;DHT22;54673;52.262;6.830;2023-02-28T00:24:18;14.70;50.40
67870;DHT22;54673;52.262;6.830;2023-02-28T00:26:44;14.60;50.50
67870;DHT22;54673;52.262;6.830;2023-02-28T00:29:10;14.60;50.40
67870;DHT22;54673;52.262;6.830;2023-02-28T00:31:35;14.60;50.40
67870;DHT22;54673;52.262;6.830;2023-02-28T00:34:01;14.60;50.40
67870;DHT22;54673;52.262;6.830;2023-02-28T00:36:26;14.60;50.40
67870;DHT22;54673;52.262;6.830;2023-02-28T00:38:52;14.60;50.50
67870;DHT22;54673;52.262;6.830;2023-02-28T00:41:17;14.60;50.40
67870;DHT22;54673;52.262;6.830;2023-02-28T00:43:43;14.60;50.50
67870;DHT22;54673;52.262;6.830;2023-02-28T00:46:09;14.60;50.50
67870;DHT22;54673;52.262;6.830;2023-02-28T00:48:35;14.60;50.50
67870;DHT22;54673;52.262;6.830;2023-02-28T00:51:01;14.60;50.40
67870;DHT22;54673;52.262;6.830;2023-02-28T00:53:27;14.60;50.50
67870;DHT22;54673;52.262;6.830;2023-02-28T00:55:53;14.60;50.50
67870;DHT22;54673;52.262;6.830;2023-02-28T00:58:18;14.60;50.50
67870;DHT22;54673;52.262;6.830;2023-02-28T01:00:44;14.50;50.40
67870;DHT22;54673;52.262;6.830;2023-02-28T01:03:15;14.50;50.50
67870;DHT22;54673;52.262;6.830;2023-02-28T01:05:41;14.50;50.50
67870;DHT22;54673;52.262;6.830;2023-02-28T01:08:06;14.50;50.50
67870;DHT22;54673;52.262;6.830;2023-02-28T01:10:32;14.50;50.50
67870;DHT22;54673;52.262;6.830;2023-02-28T01:12:58;14.50;50.50
67870;DHT22;54673;52.262;6.830;2023-02-28T01:15:23;14.50;50.60
67870;DHT22;54673;52.262;6.830;2023-02-28T01:17:49;14.50;50.50
67870;DHT22;54673;52.262;6.830;2023-02-28T01:20:15;14.50;50.60
67870;DHT22;54673;52.262;6.830;2023-02-28T01:22:40;14.50;50.50
67870;DHT22;54673;52.262;6.830;2023-02-28T01:25:06;14.50;50.60
67870;DHT22;54673;52.262;6.830;2023-02-28T01:27:33;14.50;50.60
67870;DHT22;54673;52.262;6.830;2023-02-28T01:29:58;14.50;50.50
67870;DHT22;54673;52.262;6.830;2023-02-28T01:32:24;14.50;50.60
67870;DHT22;54673;52.262;6.830;2023-02-28T01:34:49;14.50;50.60
67870;DHT22;54673;52.262;6.830;2023-02-28T01:37:15;14.50;50.60
67870;DHT22;54673;52.262;6.830;2023-02-28T01:39:41;14.50;50.50
67870;DHT22;54673;52.262;6.830;2023-02-28T01:42:09;14.40;50.50
67870;DHT22;54673;52.262;6.830;2023-02-28T01:45:01;14.40;50.60
67870;DHT22;54673;52.262;6.830;2023-02-28T01:47:31;14.40;50.50
67870;DHT22;54673;52.262;6.830;2023-02-28T01:49:58;14.40;50.60
67870;DHT22;54673;52.262;6.830;2023-02-28T01:52:24;14.80;50.70
67870;DHT22;54673;52.262;6.830;2023-02-28T01:54:52;14.40;50.60
67870;DHT22;54673;52.262;6.830;2023-02-28T01:57:23;14.40;50.60
67870;DHT22;54673;52.262;6.830;2023-02-28T02:00:00;14.40;50.60
67870;DHT22;54673;52.262;6.830;2023-02-28T02:02:30;14.40;50.60
67870;DHT22;54673;52.262;6.830;2023-02-28T02:05:08;14.40;50.50
67870;DHT22;54673;52.262;6.830;2023-02-28T02:07:38;14.40;50.50
67870;DHT22;54673;52.262;6.830;2023-02-28T02:10:10;14.40;50.50
67870;DHT22;54673;52.262;6.830;2023-02-28T02:18:28;14.40;50.60
67870;DHT22;54673;52.262;6.830;2023-02-28T02:21:15;14.40;50.60
67870;DHT22;54673;52.262;6.830;2023-02-28T02:23:50;14.40;50.70
67870;DHT22;54673;52.262;6.830;2023-02-28T02:34:57;14.30;50.60
67870;DHT22;54673;52.262;6.830;2023-02-28T02:40:08;14.30;50.60
67870;DHT22;54673;52.262;6.830;2023-02-28T02:42:47;14.30;50.60
67870;DHT22;54673;52.262;6.830;2023-02-28T02:45:21;14.30;50.50
67870;DHT22;54673;52.262;6.830;2023-02-28T02:47:49;14.30;50.60
67870;DHT22;54673;52.262;6.830;2023-02-28T02:50:22;14.30;50.50
67870;DHT22;54673;52.262;6.830;2023-02-28T02:52:53;14.30;50.60
67870;DHT22;54673;52.262;6.830;2023-02-28T02:55:22;14.30;50.50
67870;DHT22;54673;52.262;6.830;2023-02-28T02:57:52;14.30;50.40
67870;DHT22;54673;52.262;6.830;2023-02-28T03:00:25;14.30;50.60
67870;DHT22;54673;52.262;6.830;2023-02-28T03:02:53;14.30;50.50
67870;DHT22;54673;52.262;6.830;2023-02-28T03:05:29;14.30;50.60
67870;DHT22;54673;52.262;6.830;2023-02-28T03:07:55;14.30;50.50
67870;DHT22;54673;52.262;6.830;2023-02-28T03:10:36;14.30;50.40
67870;DHT22;54673;52.262;6.830;2023-02-28T03:19:12;14.30;50.50
67870;DHT22;54673;52.262;6.830;2023-02-28T03:24:40;14.30;50.50
67870;DHT22;54673;52.262;6.830;2023-02-28T03:27:16;14.30;50.50
67870;DHT22;54673;52.262;6.830;2023-02-28T03:29:50;14.20;50.40
67870;DHT22;54673;52.262;6.830;2023-02-28T03:32:37;14.30;50.50
67870;DHT22;54673;52.262;6.830;2023-02-28T03:35:14;14.30;50.50
67870;DHT22;54673;52.262;6.830;2023-02-28T03:37:49;14.20;50.40
67870;DHT22;54673;52.262;6.830;2023-02-28T03:40:17;14.20;50.40
67870;DHT22;54673;52.262;6.830;2023-02-28T03:42:47;14.20;50.40
67870;DHT22;54673;52.262;6.830;2023-02-28T03:45:18;14.20;50.40
67870;DHT22;54673;52.262;6.830;2023-02-28T03:50:34;14.30;50.40
67870;DHT22;54673;52.262;6.830;2023-02-28T03:55:37;14.30;50.60
67870;DHT22;54673;52.262;6.830;2023-02-28T04:00:47;14.20;50.40
67870;DHT22;54673;52.262;6.830;2023-02-28T04:03:14;14.20;50.40
67870;DHT22;54673;52.262;6.830;2023-02-28T04:05:50;14.20;50.40
67870;DHT22;54673;52.262;6.830;2023-02-28T04:08:17;14.20;50.40
67870;DHT22;54673;52.262;6.830;2023-02-28T04:10:46;14.20;50.50
67870;DHT22;54673;52.262;6.830;2023-02-28T04:13:13;14.20;50.40
67870;DHT22;54673;52.262;6.830;2023-02-28T04:15:39;14.20;50.40
67870;DHT22;54673;52.262;6.830;2023-02-28T04:18:04;14.20;50.30
67870;DHT22;54673;52.262;6.830;2023-02-28T04:20:31;14.20;50.30
67870;DHT22;54673;52.262;6.830;2023-02-28T04:22:56;14.20;50.40
67870;DHT22;54673;52.262;6.830;2023-02-28T04:25:22;14.20;50.30
67870;DHT22;54673;52.262;6.830;2023-02-28T04:27:47;14.20;50.30
67870;DHT22;54673;52.262;6.830;2023-02-28T04:30:13;14.20;50.40
67870;DHT22;54673;52.262;6.830;2023-02-28T04:32:38;14.20;50.30
67870;DHT22;54673;52.262;6.830;2023-02-28T04:35:04;14.20;50.40
67870;DHT22;54673;52.262;6.830;2023-02-28T04:37:30;14.20;50.40
67870;DHT22;54673;52.262;6.830;2023-02-28T04:40:00;14.20;50.40
67870;DHT22;54673;52.262;6.830;2023-02-28T04:42:25;14.20;50.40
67870;DHT22;54673;52.262;6.830;2023-02-28T04:44:52;14.20;50.40
67870;DHT22;54673;52.262;6.830;2023-02-28T04:47:17;14.20;50.40
67870;DHT22;54673;52.262;6.830;2023-02-28T04:49:43;14.10;50.30
67870;DHT22;54673;52.262;6.830;2023-02-28T04:52:08;14.20;50.40
67870;DHT22;54673;52.262;6.830;2023-02-28T04:54:35;14.20;50.40
67870;DHT22;54673;52.262;6.830;2023-02-28T04:57:01;14.20;50.40
67870;DHT22;54673;52.262;6.830;2023-02-28T04:59:27;14.20;50.30
67870;DHT22;54673;52.262;6.830;2023-02-28T05:01:52;14.10;51.20
67870;DHT22;54673;52.262;6.830;2023-02-28T05:04:18;14.20;50.40
67870;DHT22;54673;52.262;6.830;2023-02-28T05:06:43;14.20;50.30
67870;DHT22;54673;52.262;6.830;2023-02-28T05:09:09;14.20;50.30
67870;DHT22;54673;52.262;6.830;2023-02-28T05:11:37;14.10;50.30
67870;DHT22;54673;52.262;6.830;2023-02-28T05:14:06;14.10;50.30
67870;DHT22;54673;52.262;6.830;2023-02-28T05:16:32;14.20;50.30
67870;DHT22;54673;52.262;6.830;2023-02-28T05:18:58;14.10;50.30
67870;DHT22;54673;52.262;6.830;2023-02-28T05:21:30;14.10;50.30
67870;DHT22;54673;52.262;6.830;2023-02-28T05:23:59;14.10;50.30
67870;DHT22;54673;52.262;6.830;2023-02-28T05:26:25;14.10;50.30
67870;DHT22;54673;52.262;6.830;2023-02-28T05:28:51;14.10;50.30
67870;DHT22;54673;52.262;6.830;2023-02-28T05:31:16;14.10;50.20
67870;DHT22;54673;52.262;6.830;2023-02-28T05:33:42;14.10;50.20
67870;DHT22;54673;52.262;6.830;2023-02-28T05:36:08;14.10;50.20
67870;DHT22;54673;52.262;6.830;2023-02-28T05:38:33;13.70;49.90
67870;DHT22;54673;52.262;6.830;2023-02-28T05:40:59;14.10;50.20
67870;DHT22;54673;52.262;6.830;2023-02-28T05:43:25;14.10;50.20
67870;DHT22;54673;52.262;6.830;2023-02-28T05:45:51;14.10;50.20
67870;DHT22;54673;52.262;6.830;2023-02-28T05:48:17;14.10;50.20
67870;DHT22;54673;52.262;6.830;2023-02-28T05:50:43;14.10;50.20
67870;DHT22;54673;52.262;6.830;2023-02-28T05:53:11;14.10;50.10
67870;DHT22;54673;52.262;6.830;2023-02-28T05:55:37;14.10;50.20
67870;DHT22;54673;52.262;6.830;2023-02-28T05:58:03;14.10;51.00
67870;DHT22;54673;52.262;6.830;2023-02-28T06:00:28;14.10;50.10
67870;DHT22;54673;52.262;6.830;2023-02-28T06:02:54;14.10;50.10
67870;DHT22;54673;52.262;6.830;2023-02-28T06:05:23;14.10;50.10
67870;DHT22;54673;52.262;6.830;2023-02-28T06:07:49;14.10;50.10
67870;DHT22;54673;52.262;6.830;2023-02-28T06:10:14;14.10;50.10
67870;DHT22;54673;52.262;6.830;2023-02-28T06:12:40;14.10;50.00
67870;DHT22;54673;52.262;6.830;2023-02-28T06:15:10;14.10;50.00
67870;DHT22;54673;52.262;6.830;2023-02-28T06:17:37;14.10;50.00
67870;DHT22;54673;52.262;6.830;2023-02-28T06:20:03;14.10;50.00
67870;DHT22;54673;52.262;6.830;2023-02-28T06:22:29;14.10;50.10
67870;DHT22;54673;52.262;6.830;2023-02-28T06:24:55;14.10;50.00
67870;DHT22;54673;52.262;6.830;2023-02-28T06:27:22;14.10;50.00
67870;DHT22;54673;52.262;6.830;2023-02-28T06:29:47;14.10;50.00
67870;DHT22;54673;52.262;6.830;2023-02-28T06:32:13;14.00;50.00
67870;DHT22;54673;52.262;6.830;2023-02-28T06:34:38;14.00;50.00
67870;DHT22;54673;52.262;6.830;2023-02-28T06:37:04;14.00;50.00
67870;DHT22;54673;52.262;6.830;2023-02-28T06:39:30;14.10;50.00
67870;DHT22;54673;52.262;6.830;2023-02-28T06:41:56;14.10;50.00
67870;DHT22;54673;52.262;6.830;2023-02-28T06:44:22;14.10;50.00
67870;DHT22;54673;52.262;6.830;2023-02-28T06:46:48;14.00;50.00
67870;DHT22;54673;52.262;6.830;2023-02-28T06:49:14;14.00;50.00
67870;DHT22;54673;52.262;6.830;2023-02-28T06:51:41;14.00;50.00
67870;DHT22;54673;52.262;6.830;2023-02-28T06:54:07;14.00;50.00
67870;DHT22;54673;52.262;6.830;2023-02-28T06:56:35;14.00;50.00
67870;DHT22;54673;52.262;6.830;2023-02-28T06:59:01;14.00;50.00
67870;DHT22;54673;52.262;6.830;2023-02-28T07:01:27;14.00;50.00
67870;DHT22;54673;52.262;6.830;2023-02-28T07:03:54;14.00;50.00
67870;DHT22;54673;52.262;6.830;2023-02-28T07:06:21;14.00;50.00
67870;DHT22;54673;52.262;6.830;2023-02-28T07:08:49;14.00;50.00
67870;DHT22;54673;52.262;6.830;2023-02-28T07:11:15;14.00;50.00
67870;DHT22;54673;52.262;6.830;2023-02-28T07:13:41;14.00;50.00
67870;DHT22;54673;52.262;6.830;2023-02-28T07:16:10;14.00;50.00
67870;DHT22;54673;52.262;6.830;2023-02-28T07:18:36;13.90;49.90
67870;DHT22;54673;52.262;6.830;2023-02-28T07:21:03;14.00;50.00
67870;DHT22;54673;52.262;6.830;2023-02-28T07:23:29;14.00;50.00
67870;DHT22;54673;52.262;6.830;2023-02-28T07:25:54;14.00;50.00
67870;DHT22;54673;52.262;6.830;2023-02-28T07:28:20;14.00;50.00
67870;DHT22;54673;52.262;6.830;2023-02-28T07:30:45;14.00;49.90
67870;DHT22;54673;52.262;6.830;2023-02-28T07:33:11;14.00;50.00
67870;DHT22;54673;52.262;6.830;2023-02-28T07:35:37;14.50;50.20
67870;DHT22;54673;52.262;6.830;2023-02-28T07:38:03;13.90;49.90
67870;DHT22;54673;52.262;6.830;2023-02-28T07:40:29;14.00;50.00
67870;DHT22;54673;52.262;6.830;2023-02-28T07:42:54;14.00;50.00
67870;DHT22;54673;52.262;6.830;2023-02-28T07:45:20;14.00;49.90
67870;DHT22;54673;52.262;6.830;2023-02-28T07:47:45;14.00;50.00
67870;DHT22;54673;52.262;6.830;2023-02-28T07:50:14;14.00;49.90
67870;DHT22;54673;52.262;6.830;2023-02-28T07:52:40;14.00;50.00
67870;DHT22;54673;52.262;6.830;2023-02-28T07:55:08;14.00;50.00
67870;DHT22;54673;52.262;6.830;2023-02-28T07:57:34;14.00;49.90
67870;DHT22;54673;52.262;6.830;2023-02-28T08:00:00;14.00;49.90
67870;DHT22;54673;52.262;6.830;2023-02-28T08:02:25;14.00;49.90
67870;DHT22;54673;52.262;6.830;2023-02-28T08:04:51;14.00;50.30
67870;DHT22;54673;52.262;6.830;2023-02-28T08:07:17;13.90;49.90
67870;DHT22;54673;52.262;6.830;2023-02-28T08:09:44;14.00;49.90
67870;DHT22;54673;52.262;6.830;2023-02-28T08:12:10;14.00;50.00
67870;DHT22;54673;52.262;6.830;2023-02-28T08:14:36;14.00;50.00
67870;DHT22;54673;52.262;6.830;2023-02-28T08:17:02;14.00;50.10
67870;DHT22;54673;52.262;6.830;2023-02-28T08:19:28;14.00;50.00
67870;DHT22;54673;52.262;6.830;2023-02-28T08:21:54;13.90;49.90
67870;DHT22;54673;52.262;6.830;2023-02-28T08:24:20;14.00;50.00
67870;DHT22;54673;52.262;6.830;2023-02-28T08:26:45;14.00;50.00
67870;DHT22;54673;52.262;6.830;2023-02-28T08:29:11;13.90;49.90
67870;DHT22;54673;52.262;6.830;2023-02-28T08:31:36;14.00;50.00
67870;DHT22;54673;52.262;6.830;2023-02-28T08:34:07;13.90;50.00
67870;DHT22;54673;52.262;6.830;2023-02-28T08:36:32;13.90;50.00
67870;DHT22;54673;52.262;6.830;2023-02-28T08:38:58;14.00;50.20
67870;DHT22;54673;52.262;6.830;2023-02-28T08:41:25;13.90;49.90
67870;DHT22;54673;52.262;6.830;2023-02-28T08:43:51;14.00;50.00
67870;DHT22;54673;52.262;6.830;2023-02-28T08:46:16;13.90;49.90
67870;DHT22;54673;52.262;6.830;2023-02-28T08:48:42;13.90;49.90
67870;DHT22;54673;52.262;6.830;2023-02-28T08:51:12;13.90;49.90
67870;DHT22;54673;52.262;6.830;2023-02-28T08:53:39;13.90;49.90
67870;DHT22;54673;52.262;6.830;2023-02-28T08:56:11;13.90;49.90
67870;DHT22;54673;52.262;6.830;2023-02-28T08:58:36;14.00;50.00
67870;DHT22;54673;52.262;6.830;2023-02-28T09:01:29;14.00;49.90
67870;DHT22;54673;52.262;6.830;2023-02-28T09:03:55;14.00;50.00
67870;DHT22;54673;52.262;6.830;2023-02-28T09:06:23;14.00;50.00
67870;DHT22;54673;52.262;6.830;2023-02-28T09:08:49;14.00;50.00
67870;DHT22;54673;52.262;6.830;2023-02-28T09:11:15;13.90;49.90
67870;DHT22;54673;52.262;6.830;2023-02-28T09:13:41;14.00;49.90
67870;DHT22;54673;52.262;6.830;2023-02-28T09:16:10;14.00;49.90
67870;DHT22;54673;52.262;6.830;2023-02-28T09:18:37;14.00;49.90
67870;DHT22;54673;52.262;6.830;2023-02-28T09:21:07;14.00;50.00
67870;DHT22;54673;52.262;6.830;2023-02-28T09:23:34;14.00;49.90
67870;DHT22;54673;52.262;6.830;2023-02-28T09:25:59;14.00;49.90
67870;DHT22;54673;52.262;6.830;2023-02-28T09:28:25;14.00;49.90
67870;DHT22;54673;52.262;6.830;2023-02-28T09:30:53;14.00;49.80
67870;DHT22;54673;52.262;6.830;2023-02-28T09:33:20;14.00;49.90
67870;DHT22;54673;52.262;6.830;2023-02-28T09:35:47;14.00;50.00
67870;DHT22;54673;52.262;6.830;2023-02-28T09:38:12;14.00;49.90
67870;DHT22;54673;52.262;6.830;2023-02-28T09:43:12;14.00;49.90
67870;DHT22;54673;52.262;6.830;2023-02-28T09:45:41;14.00;49.80
67870;DHT22;54673;52.262;6.830;2023-02-28T09:48:14;14.00;49.80
67870;DHT22;54673;52.262;6.830;2023-02-28T09:51:00;14.00;49.80
67870;DHT22;54673;52.262;6.830;2023-02-28T09:53:35;14.00;49.80
67870;DHT22;54673;52.262;6.830;2023-02-28T09:56:24;14.00;49.80
67870;DHT22;54673;52.262;6.830;2023-02-28T10:06:51;14.10;50.00
67870;DHT22;54673;52.262;6.830;2023-02-28T10:09:24;14.10;50.20
67870;DHT22;54673;52.262;6.830;2023-02-28T10:11:52;14.10;50.30
67870;DHT22;54673;52.262;6.830;2023-02-28T10:14:21;14.20;50.60
67870;DHT22;54673;52.262;6.830;2023-02-28T10:22:22;14.20;50.90
67870;DHT22;54673;52.262;6.830;2023-02-28T10:24:54;14.20;51.10
67870;DHT22;54673;52.262;6.830;2023-02-28T10:27:28;14.20;50.90
67870;DHT22;54673;52.262;6.830;2023-02-28T10:29:56;14.20;51.00
67870;DHT22;54673;52.262;6.830;2023-02-28T10:32:33;14.20;51.40
67870;DHT22;54673;52.262;6.830;2023-02-28T10:35:09;14.30;51.70
67870;DHT22;54673;52.262;6.830;2023-02-28T10:37:39;14.20;51.80
67870;DHT22;54673;52.262;6.830;2023-02-28T10:40:26;15.00;52.40
67870;DHT22;54673;52.262;6.830;2023-02-28T10:42:56;14.20;51.90
67870;DHT22;54673;52.262;6.830;2023-02-28T10:45:22;14.30;51.80
67870;DHT22;54673;52.262;6.830;2023-02-28T10:48:06;14.30;52.00
67870;DHT22;54673;52.262;6.830;2023-02-28T10:56:05;14.30;52.40
67870;DHT22;54673;52.262;6.830;2023-02-28T10:58:42;14.40;52.20
67870;DHT22;54673;52.262;6.830;2023-02-28T11:01:15;14.40;51.80
67870;DHT22;54673;52.262;6.830;2023-02-28T11:03:42;14.40;51.50
67870;DHT22;54673;52.262;6.830;2023-02-28T11:06:16;14.40;52.00
67870;DHT22;54673;52.262;6.830;2023-02-28T11:08:56;14.40;52.10
67870;DHT22;54673;52.262;6.830;2023-02-28T11:11:29;14.50;52.10
67870;DHT22;54673;52.262;6.830;2023-02-28T11:14:15;14.50;51.90
67870;DHT22;54673;52.262;6.830;2023-02-28T11:16:41;14.60;51.70
67870;DHT22;54673;52.262;6.830;2023-02-28T11:19:23;14.60;51.60
67870;DHT22;54673;52.262;6.830;2023-02-28T11:22:01;14.60;51.80
67870;DHT22;54673;52.262;6.830;2023-02-28T11:24:31;14.60;51.90
67870;DHT22;54673;52.262;6.830;2023-02-28T11:26:57;14.70;52.00
67870;DHT22;54673;52.262;6.830;2023-02-28T11:29:28;14.70;51.90
67870;DHT22;54673;52.262;6.830;2023-02-28T11:32:24;14.70;51.80
67870;DHT22;54673;52.262;6.830;2023-02-28T11:37:38;14.70;52.00
67870;DHT22;54673;52.262;6.830;2023-02-28T11:40:15;14.70;52.10
67870;DHT22;54673;52.262;6.830;2023-02-28T11:42:59;14.80;51.80
67870;DHT22;54673;52.262;6.830;2023-02-28T11:48:33;14.80;51.70
67870;DHT22;54673;52.262;6.830;2023-02-28T11:51:15;14.80;51.50
67870;DHT22;54673;52.262;6.830;2023-02-28T11:56:57;14.80;51.40
67870;DHT22;54673;52.262;6.830;2023-02-28T12:00:02;14.80;51.40
67870;DHT22;54673;52.262;6.830;2023-02-28T12:05:45;14.80;51.70
67870;DHT22;54673;52.262;6.830;2023-02-28T12:09:08;14.80;52.00
67870;DHT22;54673;52.262;6.830;2023-02-28T12:14:07;14.90;52.40
67870;DHT22;54673;52.262;6.830;2023-02-28T12:16:54;14.90;53.10
67870;DHT22;54673;52.262;6.830;2023-02-28T12:22:27;15.00;52.40
67870;DHT22;54673;52.262;6.830;2023-02-28T12:27:41;15.10;52.30
67870;DHT22;54673;52.262;6.830;2023-02-28T12:32:58;15.10;52.40
67870;DHT22;54673;52.262;6.830;2023-02-28T12:35:41;15.20;52.40
67870;DHT22;54673;52.262;6.830;2023-02-28T12:38:21;15.20;52.40
67870;DHT22;54673;52.262;6.830;2023-02-28T12:41:00;15.30;52.50
67870;DHT22;54673;52.262;6.830;2023-02-28T12:43:32;15.40;52.50
67870;DHT22;54673;52.262;6.830;2023-02-28T12:46:21;15.40;52.50
67870;DHT22;54673;52.262;6.830;2023-02-28T12:48:56;15.40;52.50
67870;DHT22;54673;52.262;6.830;2023-02-28T12:51:24;15.40;52.80
67870;DHT22;54673;52.262;6.830;2023-02-28T12:56:43;15.40;52.60
67870;DHT22;54673;52.262;6.830;2023-02-28T12:59:27;15.50;52.60
67870;DHT22;54673;52.262;6.830;2023-02-28T13:08:04;15.60;53.00
67870;DHT22;54673;52.262;6.830;2023-02-28T13:10:44;15.70;53.10
67870;DHT22;54673;52.262;6.830;2023-02-28T13:13:19;15.70;53.20
67870;DHT22;54673;52.262;6.830;2023-02-28T13:16:09;15.70;53.20
67870;DHT22;54673;52.262;6.830;2023-02-28T13:18:45;15.80;52.80
67870;DHT22;54673;52.262;6.830;2023-02-28T13:21:28;15.80;52.50
67870;DHT22;54673;52.262;6.830;2023-02-28T13:24:03;15.80;52.30
67870;DHT22;54673;52.262;6.830;2023-02-28T13:34:32;15.80;51.70
67870;DHT22;54673;52.262;6.830;2023-02-28T13:37:32;15.80;51.50
67870;DHT22;54673;52.262;6.830;2023-02-28T13:42:52;15.80;51.40
67870;DHT22;54673;52.262;6.830;2023-02-28T13:45:28;15.80;51.50
67870;DHT22;54673;52.262;6.830;2023-02-28T13:48:03;15.70;51.40
67870;DHT22;54673;52.262;6.830;2023-02-28T13:50:38;15.70;51.40
67870;DHT22;54673;52.262;6.830;2023-02-28T14:06:53;15.70;51.60
67870;DHT22;54673;52.262;6.830;2023-02-28T14:09:38;15.70;51.40
67870;DHT22;54673;52.262;6.830;2023-02-28T14:18:00;15.70;51.40
67870;DHT22;54673;52.262;6.830;2023-02-28T14:20:29;15.70;51.40
67870;DHT22;54673;52.262;6.830;2023-02-28T14:23:10;15.70;51.40
67870;DHT22;54673;52.262;6.830;2023-02-28T14:25:47;15.70;51.40
67870;DHT22;54673;52.262;6.830;2023-02-28T14:28:26;15.70;51.40
67870;DHT22;54673;52.262;6.830;2023-02-28T14:31:07;15.70;51.40
67870;DHT22;54673;52.262;6.830;2023-02-28T14:34:17;15.70;51.40
67870;DHT22;54673;52.262;6.830;2023-02-28T14:36:47;15.70;51.80
67870;DHT22;54673;52.262;6.830;2023-02-28T14:39:16;15.70;51.90
67870;DHT22;54673;52.262;6.830;2023-02-28T14:41:45;15.70;52.10
67870;DHT22;54673;52.262;6.830;2023-02-28T14:44:25;15.70;52.10
67870;DHT22;54673;52.262;6.830;2023-02-28T14:47:02;15.70;52.30
67870;DHT22;54673;52.262;6.830;2023-02-28T14:49:34;15.70;52.40
67870;DHT22;54673;52.262;6.830;2023-02-28T14:54:40;15.80;52.50
67870;DHT22;54673;52.262;6.830;2023-02-28T14:57:06;15.70;52.40
67870;DHT22;54673;52.262;6.830;2023-02-28T14:59:34;15.80;52.60
67870;DHT22;54673;52.262;6.830;2023-02-28T15:02:21;15.90;52.60
67870;DHT22;54673;52.262;6.830;2023-02-28T15:04:59;15.90;52.70
67870;DHT22;54673;52.262;6.830;2023-02-28T15:07:26;15.90;52.70
67870;DHT22;54673;52.262;6.830;2023-02-28T15:10:21;15.90;52.70
67870;DHT22;54673;52.262;6.830;2023-02-28T15:12:58;15.90;52.80
67870;DHT22;54673;52.262;6.830;2023-02-28T15:15:49;15.90;52.80
67870;DHT22;54673;52.262;6.830;2023-02-28T15:21:01;16.00;52.90
67870;DHT22;54673;52.262;6.830;2023-02-28T15:23:28;15.40;52.60
67870;DHT22;54673;52.262;6.830;2023-02-28T15:25:54;16.00;52.90
67870;DHT22;54673;52.262;6.830;2023-02-28T15:28:22;16.00;52.90
67870;DHT22;54673;52.262;6.830;2023-02-28T15:31:00;16.10;53.00
67870;DHT22;54673;52.262;6.830;2023-02-28T15:33:31;16.10;53.00
67870;DHT22;54673;52.262;6.830;2023-02-28T15:36:14;16.10;53.00
67870;DHT22;54673;52.262;6.830;2023-02-28T15:38:39;16.10;53.00
67870;DHT22;54673;52.262;6.830;2023-02-28T15:41:05;16.10;53.00
67870;DHT22;54673;52.262;6.830;2023-02-28T15:43:38;16.20;53.00
67870;DHT22;54673;52.262;6.830;2023-02-28T15:46:10;16.20;53.10
67870;DHT22;54673;52.262;6.830;2023-02-28T15:48:43;16.20;53.10
67870;DHT22;54673;52.262;6.830;2023-02-28T15:54:06;16.20;53.10
67870;DHT22;54673;52.262;6.830;2023-02-28T15:56:38;16.30;53.10
67870;DHT22;54673;52.262;6.830;2023-02-28T15:59:15;16.30;53.00
67870;DHT22;54673;52.262;6.830;2023-02-28T16:01:41;16.30;52.80
67870;DHT22;54673;52.262;6.830;2023-02-28T16:04:15;16.30;52.80
67870;DHT22;54673;52.262;6.830;2023-02-28T16:06:45;16.30;53.00
67870;DHT22;54673;52.262;6.830;2023-02-28T16:09:13;16.30;53.10
67870;DHT22;54673;52.262;6.830;2023-02-28T16:11:45;16.30;53.10
67870;DHT22;54673;52.262;6.830;2023-02-28T16:14:19;16.30;53.20
67870;DHT22;54673;52.262;6.830;2023-02-28T16:16:48;16.30;53.20
67870;DHT22;54673;52.262;6.830;2023-02-28T16:19:14;16.30;53.20
67870;DHT22;54673;52.262;6.830;2023-02-28T16:21:40;16.30;53.20
67870;DHT22;54673;52.262;6.830;2023-02-28T16:24:06;16.30;53.10
67870;DHT22;54673;52.262;6.830;2023-02-28T16:26:33;16.30;53.00
67870;DHT22;54673;52.262;6.830;2023-02-28T16:29:01;16.30;53.00
67870;DHT22;54673;52.262;6.830;2023-02-28T16:31:27;16.30;52.90
67870;DHT22;54673;52.262;6.830;2023-02-28T16:33:54;16.30;52.90
67870;DHT22;54673;52.262;6.830;2023-02-28T16:36:22;16.30;52.80
67870;DHT22;54673;52.262;6.830;2023-02-28T16:38:50;16.30;52.90
67870;DHT22;54673;52.262;6.830;2023-02-28T16:41:21;16.30;53.00
67870;DHT22;54673;52.262;6.830;2023-02-28T16:43:49;16.30;52.80
67870;DHT22;54673;52.262;6.830;2023-02-28T16:46:16;16.30;52.80
67870;DHT22;54673;52.262;6.830;2023-02-28T16:48:42;16.30;52.80
67870;DHT22;54673;52.262;6.830;2023-02-28T16:51:11;16.30;52.70
67870;DHT22;54673;52.262;6.830;2023-02-28T16:53:37;16.30;52.70
67870;DHT22;54673;52.262;6.830;2023-02-28T16:56:03;16.30;52.70
67870;DHT22;54673;52.262;6.830;2023-02-28T16:58:29;16.30;52.70
67870;DHT22;54673;52.262;6.830;2023-02-28T17:00:55;16.30;52.70
67870;DHT22;54673;52.262;6.830;2023-02-28T17:03:23;16.30;52.70
67870;DHT22;54673;52.262;6.830;2023-02-28T17:05:49;16.30;52.70
67870;DHT22;54673;52.262;6.830;2023-02-28T17:08:15;16.30;52.80
67870;DHT22;54673;52.262;6.830;2023-02-28T17:10:41;16.30;52.90
67870;DHT22;54673;52.262;6.830;2023-02-28T17:13:07;16.30;53.50
67870;DHT22;54673;52.262;6.830;2023-02-28T17:15:34;16.30;52.80
67870;DHT22;54673;52.262;6.830;2023-02-28T17:18:00;16.40;52.90
67870;DHT22;54673;52.262;6.830;2023-02-28T17:20:26;16.40;52.70
67870;DHT22;54673;52.262;6.830;2023-02-28T17:22:55;16.40;52.50
67870;DHT22;54673;52.262;6.830;2023-02-28T17:25:22;16.40;52.50
67870;DHT22;54673;52.262;6.830;2023-02-28T17:27:48;16.30;52.30
67870;DHT22;54673;52.262;6.830;2023-02-28T17:30:24;16.30;52.30
67870;DHT22;54673;52.262;6.830;2023-02-28T17:32:53;16.30;52.20
67870;DHT22;54673;52.262;6.830;2023-02-28T17:35:19;16.30;52.20
67870;DHT22;54673;52.262;6.830;2023-02-28T17:37:44;16.30;52.10
67870;DHT22;54673;52.262;6.830;2023-02-28T17:40:16;16.20;52.00
67870;DHT22;54673;52.262;6.830;2023-02-28T17:42:42;16.20;52.00
67870;DHT22;54673;52.262;6.830;2023-02-28T17:45:08;16.20;52.00
67870;DHT22;54673;52.262;6.830;2023-02-28T17:47:33;16.20;51.80
67870;DHT22;54673;52.262;6.830;2023-02-28T17:49:59;16.20;51.90
67870;DHT22;54673;52.262;6.830;2023-02-28T17:52:24;16.20;51.80
67870;DHT22;54673;52.262;6.830;2023-02-28T17:54:50;16.20;51.90